createdAt,value
2022-09-23T00:05:34.834Z,0
2022-09-23T00:10:47.149Z,0
2022-09-23T00:15:59.369Z,0
2022-09-23T00:21:11.710Z,0
2022-09-23T00:26:24.019Z,0
2022-09-23T00:31:36.438Z,0
2022-09-23T00:36:48.784Z,0
2022-09-23T00:42:01.095Z,0
2022-09-23T00:47:13.508Z,0
2022-09-23T00:52:25.963Z,0
2022-09-23T00:57:38.205Z,0
2022-09-23T01:02:50.693Z,0
2022-09-23T01:08:02.881Z,0
2022-09-23T01:13:15.636Z,0
2022-09-23T01:18:27.970Z,0
2022-09-23T01:23:40.311Z,0
2022-09-23T01:28:52.839Z,0
2022-09-23T01:34:05.033Z,0
2022-09-23T01:39:17.397Z,0
2022-09-23T01:44:30.003Z,0
2022-09-23T01:49:42.420Z,0
2022-09-23T01:54:54.704Z,0
2022-09-23T02:00:06.973Z,0
2022-09-23T02:05:19.288Z,0
2022-09-23T02:10:31.539Z,0
2022-09-23T02:15:43.730Z,0
2022-09-23T02:20:56.051Z,0
2022-09-23T02:26:08.437Z,0
2022-09-23T02:31:20.870Z,0
2022-09-23T02:36:33.223Z,0
2022-09-23T02:41:45.505Z,0
2022-09-23T02:46:57.885Z,0
2022-09-23T02:52:10.486Z,0
2022-09-23T02:57:22.934Z,0
2022-09-23T03:02:35.308Z,0
2022-09-23T03:07:47.769Z,0
2022-09-23T03:13:00.224Z,0
2022-09-23T03:18:12.327Z,0
2022-09-23T03:23:24.764Z,0
2022-09-23T03:28:36.993Z,0
2022-09-23T03:33:49.379Z,0
2022-09-23T03:39:01.844Z,0
2022-09-23T03:44:14.176Z,0
2022-09-23T03:49:26.567Z,0
2022-09-23T03:54:38.883Z,0
2022-09-23T03:59:51.353Z,0
2022-09-23T04:05:03.504Z,0
2022-09-23T04:10:16.048Z,0
2022-09-23T04:15:28.518Z,0
2022-09-23T04:20:41.038Z,0
2022-09-23T04:25:53.342Z,0
2022-09-23T04:31:06.073Z,0
2022-09-23T04:36:18.203Z,202
2022-09-23T04:41:30.626Z,947
2022-09-23T04:46:43.199Z,1915
2022-09-23T04:51:55.477Z,3153
2022-09-23T04:57:07.793Z,4027
2022-09-23T05:02:20.401Z,4634
2022-09-23T05:07:32.662Z,5076
2022-09-23T05:12:45.234Z,5117
2022-09-23T05:17:57.661Z,5055
2022-09-23T05:23:10.035Z,5117
2022-09-23T05:28:22.680Z,5055
2022-09-23T05:33:35.113Z,5129
2022-09-23T05:49:12.307Z,5066
2022-09-23T05:54:24.771Z,5101
2022-09-23T05:59:36.993Z,5129
2022-09-23T06:04:49.294Z,5117
2022-09-23T06:10:01.635Z,5096
2022-09-23T06:15:14.017Z,5154
2022-09-23T06:20:26.493Z,5124
2022-09-23T06:25:38.914Z,5124
2022-09-23T06:30:51.466Z,5133
2022-09-23T06:36:04.176Z,5126
2022-09-23T06:41:16.704Z,5096
2022-09-23T06:46:28.976Z,5046
2022-09-23T06:51:41.282Z,5152
2022-09-23T06:56:53.670Z,5112
2022-09-23T07:02:06.199Z,5106
2022-09-23T07:07:18.724Z,5057
2022-09-23T07:12:31.256Z,5131
2022-09-23T07:17:43.799Z,5142
2022-09-23T07:22:56.358Z,5092
2022-09-23T07:28:08.735Z,5092
2022-09-23T07:33:31.306Z,5099
2022-09-23T07:38:33.596Z,5092
2022-09-23T07:43:45.834Z,5142
2022-09-23T07:48:58.162Z,5175
2022-09-23T07:54:10.695Z,5112
2022-09-23T07:59:23.099Z,5175
2022-09-23T08:04:35.320Z,5122
2022-09-23T08:09:48.094Z,5154
2022-09-23T08:15:00.475Z,5055
2022-09-23T08:20:12.719Z,5117
2022-09-23T08:25:25.166Z,5181
2022-09-23T08:35:49.876Z,5179
2022-09-23T08:41:02.238Z,5152
2022-09-23T08:46:14.645Z,5154
2022-09-23T08:51:27.028Z,5163
2022-09-23T08:56:39.284Z,5133
2022-09-23T09:01:51.671Z,5186
2022-09-23T09:07:24.882Z,5172
2022-09-23T09:12:16.767Z,5186
2022-09-23T09:17:32.982Z,5188
2022-09-23T09:22:41.702Z,5161
2022-09-23T09:27:54.143Z,5186
2022-09-23T09:33:06.556Z,5188
2022-09-23T09:38:19.067Z,5193
2022-09-23T09:43:32.309Z,5193
2022-09-23T09:48:43.635Z,5193
2022-09-23T09:53:56.014Z,5195
2022-09-23T09:59:08.399Z,5200
2022-09-23T10:04:21.038Z,5202
2022-09-23T10:09:33.379Z,5198
2022-09-23T10:14:45.728Z,5186
2022-09-23T10:19:58.038Z,5204
2022-09-23T10:25:10.560Z,5195
2022-09-23T10:30:22.992Z,5214
2022-09-23T10:35:35.495Z,5184
2022-09-23T10:40:47.940Z,5218
2022-09-23T10:46:00.569Z,5198
2022-09-23T10:51:12.899Z,5209
2022-09-23T10:56:25.107Z,5221
2022-09-23T11:01:38.373Z,5214
2022-09-23T11:06:50.800Z,5218
2022-09-23T11:12:03.280Z,5214
2022-09-23T11:22:28.065Z,5202
2022-09-23T11:27:40.280Z,5223
2022-09-23T11:32:52.870Z,5225
2022-09-23T11:38:05.095Z,5209
2022-09-23T11:43:17.368Z,5218
2022-09-23T11:48:29.919Z,5227
2022-09-23T11:53:42.051Z,5230
2022-09-23T11:58:56.099Z,5230
2022-09-23T12:04:16.148Z,5234
2022-09-23T12:09:27.212Z,5200
2022-09-23T12:14:31.836Z,5244
2022-09-23T12:19:44.377Z,5246
2022-09-23T12:24:56.658Z,5237
2022-09-23T12:30:08.857Z,5234
2022-09-23T12:35:21.446Z,5241
2022-09-23T12:40:34.033Z,5255
2022-09-23T12:45:46.429Z,5257
2022-09-23T12:50:58.920Z,5246
2022-09-23T12:56:11.220Z,5246
2022-09-23T13:01:23.780Z,5248
2022-09-23T13:06:35.890Z,5257
2022-09-23T13:11:48.412Z,5260
2022-09-23T13:17:00.922Z,5214
2022-09-23T13:22:12.976Z,5253
2022-09-23T13:27:25.287Z,5248
2022-09-23T13:32:37.705Z,5227
2022-09-23T13:37:50.268Z,5264
2022-09-23T13:43:02.411Z,5250
2022-09-23T13:48:14.768Z,5260
2022-09-23T13:53:27.357Z,5264
2022-09-23T14:03:51.539Z,5225
2022-09-23T14:09:03.684Z,5241
2022-09-23T14:14:16.025Z,5262
2022-09-23T14:19:27.906Z,5234
2022-09-23T14:24:40.233Z,5214
2022-09-23T14:29:52.561Z,5241
2022-09-23T14:35:05.044Z,5241
2022-09-23T14:40:17.870Z,5250
2022-09-23T14:45:30.393Z,5230
2022-09-23T14:50:42.531Z,5250
2022-09-23T14:55:54.892Z,5248
2022-09-23T15:01:07.146Z,5260
2022-09-23T15:06:19.514Z,5257
2022-09-23T15:11:31.878Z,5234
2022-09-23T15:16:44.382Z,5253
2022-09-23T15:21:56.607Z,5248
2022-09-23T15:27:08.941Z,5239
2022-09-23T15:32:21.343Z,5200
2022-09-23T15:37:36.243Z,5230
2022-09-23T15:42:46.311Z,5244
2022-09-23T15:47:58.615Z,5200
2022-09-23T15:53:10.969Z,5211
2022-09-23T15:58:23.180Z,5211
2022-09-23T16:03:35.504Z,5207
2022-09-23T16:08:47.937Z,5170
2022-09-23T16:14:00.384Z,5214
2022-09-23T16:19:12.687Z,5237
2022-09-23T16:24:28.133Z,5191
2022-09-23T16:29:37.346Z,5214
2022-09-23T16:34:49.457Z,5186
2022-09-23T16:40:01.759Z,5218
2022-09-23T16:45:13.805Z,5214
2022-09-23T16:50:26.087Z,5117
2022-09-23T16:55:38.385Z,4227
2022-09-23T17:00:50.937Z,3109
2022-09-23T17:06:07.337Z,1869
2022-09-23T17:11:15.523Z,1225
2022-09-23T17:16:27.870Z,632
2022-09-23T17:21:39.952Z,66
2022-09-23T17:26:53.357Z,0
2022-09-23T17:32:04.691Z,0
2022-09-23T17:37:16.905Z,0
2022-09-23T17:42:29.358Z,0
2022-09-23T17:47:42.041Z,0
2022-09-23T17:52:54.300Z,0
2022-09-23T17:58:06.633Z,0
2022-09-23T18:03:18.994Z,0
2022-09-23T18:08:31.268Z,0
2022-09-23T18:13:43.490Z,0
2022-09-23T18:18:56.040Z,0
2022-09-23T18:24:31.116Z,0
2022-09-23T18:29:20.664Z,0
2022-09-23T18:34:33.230Z,0
2022-09-23T18:39:45.436Z,0
2022-09-23T18:44:57.946Z,0
2022-09-23T18:50:10.399Z,0
2022-09-23T18:55:22.906Z,0
2022-09-23T19:00:35.447Z,0
2022-09-23T19:05:47.663Z,0
2022-09-23T19:11:00.288Z,0
2022-09-23T19:16:12.565Z,0
2022-09-23T19:26:37.938Z,0
2022-09-23T19:31:50.384Z,0
2022-09-23T19:37:02.838Z,0
2022-09-23T19:42:15.323Z,0
2022-09-23T19:47:27.699Z,0
2022-09-23T19:52:39.918Z,0
2022-09-23T19:57:52.910Z,0
2022-09-23T20:03:05.107Z,0
2022-09-23T20:08:17.579Z,0
2022-09-23T20:13:30.286Z,0
2022-09-23T20:18:42.699Z,0
2022-09-23T20:23:55.167Z,0
2022-09-23T20:29:07.645Z,0
2022-09-23T20:34:20.499Z,0
2022-09-23T20:39:32.833Z,0
2022-09-23T20:44:45.245Z,0
2022-09-23T20:49:57.819Z,0
2022-09-23T20:55:10.238Z,0
2022-09-23T21:00:22.731Z,0
2022-09-23T21:05:35.173Z,0
2022-09-23T21:10:47.821Z,0
2022-09-23T21:16:00.137Z,0
2022-09-23T21:21:12.445Z,0
2022-09-23T21:26:24.797Z,0
2022-09-23T21:31:37.029Z,0
2022-09-23T21:36:49.412Z,0
2022-09-23T21:42:01.716Z,0
2022-09-23T21:47:14.219Z,0
2022-09-23T21:52:26.492Z,0
2022-09-23T21:57:38.942Z,0
2022-09-23T22:02:51.255Z,0
2022-09-23T22:13:16.288Z,0
2022-09-23T22:18:28.553Z,0
2022-09-23T22:23:40.934Z,0
2022-09-23T22:28:53.453Z,0
2022-09-23T22:34:05.666Z,0
2022-09-23T22:39:17.899Z,0
2022-09-23T22:44:30.241Z,0
2022-09-23T22:49:42.749Z,0
2022-09-23T22:54:55.075Z,0
2022-09-23T23:00:07.385Z,0
2022-09-23T23:05:19.948Z,0
2022-09-23T23:10:32.363Z,0
2022-09-23T23:15:44.744Z,0
2022-09-23T23:20:56.890Z,0
2022-09-23T23:26:09.891Z,0
2022-09-23T23:31:21.540Z,0
2022-09-23T23:36:33.665Z,0
2022-09-23T23:41:46.107Z,0
2022-09-23T23:46:58.612Z,0
2022-09-23T23:52:11.154Z,0
2022-09-23T23:57:23.370Z,0
